Webcam Meteoipassi more information Webcam Meteoipassi


Visit our other weather sites:

Pomeziameteo 1Sito sul meteo

MeteopomeziaSito sul meteo

Pomeziameteo DashboardSito sul meteo

Caput FrigorisSito sul meteo

BarcellonameteoSito sul meteo

ViterbometeoSito sul meteo

MeteotortoretoSito sul meteo

TortoretometeolidoSito sul meteo

MeteoGonzagaSito sul meteo



No particular awareness of the weather is required.    There are no Weather-warnings

Notice: Undefined offset: 6 in /web/htdocs/www.meteoipassi.it/home/weather28/metar/metarDisplay.php on line 75

Notice: Undefined offset: 5 in /web/htdocs/www.meteoipassi.it/home/weather28/metar/metarDisplay.php on line 75

Nearby METAR Reports

   
LIRQ - Firenze
Updated: Jan 20 2021 6:50 am
Mist, Mostly Cloudy  
Mist, Mostly Cloudy  
   Vento: varies 1.9 km/h
Vento: varies 1.9 km/h
Temperature: 4°C
Dew Point: 4°C
Humidity: 100%
Barometer: 1022 hPa
Clouds: Mostly Cloudy
Visibility: 3 km
Cloud details: Few Clouds 762 m,
Mostly Cloudy 1524 m
LIRQ 200550Z VRB01KT 2500 BR FEW025 BKN050 04/04 Q1022
LIRP - Lucca
Updated: Jan 20 2021 6:45 am
Light Rain, Partly Cloudy  
Light Rain, Partly Cloudy  
   Vento: ESE 11.1 km/h
Vento: ESE 11.1 km/h
Temperature: 5°C
Wind Chill: 2°C
Dew Point: 5°C
Humidity: 100%
Barometer: 1023 hPa
Clouds: Partly Cloudy
Visibility: More than 10 km
Cloud details: Partly Cloudy 1066.8 m,
Partly Cloudy 1524 m
LIRP 200545Z 11006KT 9999 -RA SCT035 SCT050 05/05 Q1023 NOSIG
LIPE - Bologna
Updated: Jan 20 2021 6:50 am
Mist, Mostly Cloudy  
Mist, Mostly Cloudy  
   Vento: varies 1.9 km/h
Vento: varies 1.9 km/h
Temperature: -3°C
Dew Point: -3°C
Humidity: 100%
Barometer: 1022 hPa
Clouds: Mostly Cloudy
Visibility: 4 km
Cloud details: Mostly Cloudy 1828.8 m
LIPE 200550Z VRB01KT 3500 BR BKN060 M03/M03 Q1022
LIMP - Parma
Updated: Jan 20 2021 6:57 am
Mist, Mostly Cloudy  
Mist, Mostly Cloudy  
   Vento: NE 9.3 km/h
Vento: NE 9.3 km/h
Temperature: 0°C
Wind Chill: -3°C
Dew Point: 0°C
Humidity: 100%
Barometer: 1022 hPa
Clouds: Mostly Cloudy
Visibility: 2 km
Cloud details: Partly Cloudy 152.4 m,
Mostly Cloudy 457.2 m
LIMP 200557Z 04005KT 1500 BR SCT005 BKN015 00/00 Q1022
  

Script developed by  Saratoga-weather.org Adapted for the template by  Weerstation Leuven

You find our weather info also at:

European Weather Network

Weather Underground

AWEKAS

HAMweather, WeatherForYou, PWS Weather

Equipment we use:

Weather-station
Davis Vantage Vue

Weather-program
WVIEW

Weather-server
WDS-5

Provider
Anemos WDS-5

Davis Vantage Vue

WVIEW

WDS-5

Anemos WDS-5